createdAt,value
2023-07-08T00:00:52.957Z,99000.52
2023-07-08T00:03:40.961Z,98996.64
2023-07-08T00:06:13.035Z,98998.04
2023-07-08T00:08:40.663Z,98992.75
2023-07-08T00:11:12.366Z,98996.08
2023-07-08T00:13:40.321Z,98992.70
2023-07-08T00:16:12.817Z,98991.29
2023-07-08T00:18:40.406Z,98990.71
2023-07-08T00:21:16.855Z,98995.96
2023-07-08T00:23:49.229Z,98995.04
2023-07-08T00:26:27.511Z,98993.05
2023-07-08T00:28:55.641Z,98993.58
2023-07-08T00:31:25.795Z,98993.58
2023-07-08T00:33:56.933Z,98994.98
2023-07-08T00:36:26.896Z,98995.50
2023-07-08T00:38:54.614Z,98994.42
2023-07-08T00:41:36.463Z,98995.82
2023-07-08T00:44:04.301Z,98991.58
2023-07-08T00:46:32.112Z,98992.26
2023-07-08T00:49:09.190Z,98993.44
2023-07-08T00:51:41.220Z,98990.59
2023-07-08T00:54:16.380Z,98984.57
2023-07-08T00:56:45.049Z,98986.80
2023-07-08T00:59:37.481Z,98987.50
2023-07-08T01:02:06.887Z,98986.46
2023-07-08T01:04:46.297Z,98982.93
2023-07-08T01:07:14.091Z,98977.32
2023-07-08T01:09:43.483Z,98976.77
2023-07-08T01:12:15.543Z,98974.47
2023-07-08T01:14:43.843Z,98979.54
2023-07-08T01:17:15.523Z,98976.67
2023-07-08T01:19:44.221Z,98976.09
2023-07-08T01:22:12.117Z,98979.05
2023-07-08T01:24:42.166Z,98981.48
2023-07-08T01:27:12.924Z,98978.85
2023-07-08T01:29:40.723Z,98981.84
2023-07-08T01:32:15.243Z,98980.96
2023-07-08T01:34:42.931Z,98981.10
2023-07-08T01:37:10.833Z,98978.27
2023-07-08T01:39:38.517Z,98977.89
2023-07-08T01:42:06.161Z,98978.73
2023-07-08T01:44:35.747Z,98974.14
2023-07-08T01:47:22.086Z,98976.02
2023-07-08T01:49:50.148Z,98978.27
2023-07-08T01:52:18.139Z,98976.16
2023-07-08T01:54:45.804Z,98975.29
2023-07-08T01:57:13.499Z,98980.20
2023-07-08T01:59:41.121Z,98981.77
2023-07-08T02:02:08.746Z,98981.95
2023-07-08T02:04:36.600Z,98981.91
2023-07-08T02:07:04.484Z,98985.02
2023-07-08T02:09:32.337Z,98985.84
2023-07-08T02:12:00.091Z,98990.19
2023-07-08T02:14:27.974Z,98988.73
2023-07-08T02:16:55.731Z,98989.05
2023-07-08T02:19:23.417Z,98993.46
2023-07-08T02:21:53.067Z,98991.19
2023-07-08T02:24:20.834Z,98991.37
2023-07-08T02:26:48.711Z,98988.57
2023-07-08T02:29:16.411Z,98991.19
2023-07-08T02:31:44.778Z,98989.03
2023-07-08T02:34:13.180Z,98985.67
2023-07-08T02:36:40.854Z,98986.67
2023-07-08T02:39:08.490Z,98989.25
2023-07-08T02:41:36.263Z,98992.58
2023-07-08T02:44:03.933Z,98994.15
2023-07-08T02:46:31.840Z,98992.58
2023-07-08T02:48:59.576Z,98988.56
2023-07-08T02:51:27.326Z,98994.52
2023-07-08T02:53:55.266Z,98993.77
2023-07-08T02:56:23.971Z,98997.07
2023-07-08T02:58:51.583Z,98996.52
2023-07-08T03:01:19.575Z,98995.95
2023-07-08T03:03:47.904Z,98995.90
2023-07-08T03:06:15.678Z,98997.48
2023-07-08T03:08:43.297Z,99001.15
2023-07-08T03:11:11.211Z,99000.46
2023-07-08T03:13:38.886Z,98999.94
2023-07-08T03:16:13.846Z,99000.80
2023-07-08T03:18:48.360Z,99002.50
2023-07-08T03:21:17.300Z,99005.48
2023-07-08T03:23:44.995Z,99004.21
2023-07-08T03:26:14.985Z,99004.71
2023-07-08T03:28:42.634Z,99006.46
2023-07-08T03:31:10.715Z,99007.89
2023-07-08T03:33:38.794Z,99005.00
2023-07-08T03:36:13.205Z,99002.09
2023-07-08T03:38:45.883Z,99000.59
2023-07-08T03:41:13.738Z,99002.91
2023-07-08T03:43:41.510Z,99004.33
2023-07-08T03:46:17.482Z,99002.25
2023-07-08T03:48:45.383Z,99001.06
2023-07-08T03:51:27.333Z,99001.59
2023-07-08T03:53:54.978Z,98998.84
2023-07-08T03:56:22.655Z,98997.32
2023-07-08T03:58:51.129Z,99000.04
2023-07-08T04:01:21.537Z,99002.08
2023-07-08T04:03:49.445Z,99000.23
2023-07-08T04:06:17.475Z,99001.53
2023-07-08T04:08:45.114Z,98997.56
2023-07-08T04:11:17.337Z,99000.77
2023-07-08T04:13:45.115Z,99000.30
2023-07-08T04:16:22.464Z,99001.77
2023-07-08T04:18:52.175Z,98998.19
2023-07-08T04:21:23.501Z,98992.83
2023-07-08T04:23:51.648Z,98993.81
2023-07-08T04:26:20.240Z,98990.91
2023-07-08T04:28:48.202Z,98994.85
2023-07-08T04:31:16.091Z,98995.45
2023-07-08T04:33:43.876Z,98991.80
2023-07-08T04:36:14.856Z,98989.38
2023-07-08T04:38:43.466Z,98988.73
2023-07-08T04:41:12.285Z,98986.85
2023-07-08T04:43:39.892Z,98978.30
2023-07-08T04:46:16.413Z,98980.48
2023-07-08T04:48:44.086Z,98977.70
2023-07-08T04:51:11.956Z,98980.19
2023-07-08T04:53:39.585Z,98978.45
2023-07-08T04:56:08.672Z,98978.28
2023-07-08T04:58:36.491Z,98976.17
2023-07-08T05:01:04.126Z,98974.95
2023-07-08T05:03:31.827Z,98973.02
2023-07-08T05:05:59.758Z,98976.88
2023-07-08T05:08:27.473Z,98973.38
2023-07-08T05:10:55.084Z,98967.02
2023-07-08T05:13:23.362Z,98964.00
2023-07-08T05:15:51.127Z,98963.08
2023-07-08T05:18:18.858Z,98964.80
2023-07-08T05:20:52.226Z,98959.29
2023-07-08T05:23:19.842Z,98962.91
2023-07-08T05:25:47.470Z,98969.18
2023-07-08T05:28:15.101Z,98965.93
2023-07-08T05:30:42.780Z,98967.83
2023-07-08T05:33:10.643Z,98969.50
2023-07-08T05:35:38.524Z,98971.16
2023-07-08T05:38:06.168Z,98967.72
2023-07-08T05:40:33.896Z,98970.81
2023-07-08T05:43:01.501Z,98973.73
2023-07-08T05:45:29.124Z,98972.40
2023-07-08T05:47:57.061Z,98974.26
2023-07-08T05:50:24.782Z,98964.27
2023-07-08T05:52:52.475Z,98972.68
2023-07-08T05:55:20.282Z,98972.77
2023-07-08T05:57:48.024Z,98970.89
2023-07-08T06:00:23.910Z,98972.90
2023-07-08T06:03:01.955Z,98972.95
2023-07-08T06:05:30.154Z,98971.77
2023-07-08T06:07:57.879Z,98969.55
2023-07-08T06:10:25.824Z,98970.66
2023-07-08T06:12:53.437Z,98970.52
2023-07-08T06:15:21.110Z,98968.14
2023-07-08T06:17:48.804Z,98976.89
2023-07-08T06:20:16.545Z,98974.82
2023-07-08T06:22:47.447Z,98978.59
2023-07-08T06:25:15.798Z,98974.73
2023-07-08T06:27:43.430Z,98981.65
2023-07-08T06:30:11.189Z,98978.30
2023-07-08T06:32:38.869Z,98979.55
2023-07-08T06:35:07.118Z,98981.86
2023-07-08T06:37:34.968Z,98980.80
2023-07-08T06:40:02.608Z,98976.59
2023-07-08T06:42:30.900Z,98977.51
2023-07-08T06:44:58.534Z,98976.80
2023-07-08T06:47:26.223Z,98974.51
2023-07-08T06:49:53.976Z,98980.19
2023-07-08T06:52:21.633Z,98982.66
2023-07-08T06:54:49.315Z,98984.43
2023-07-08T06:57:16.952Z,98978.21
2023-07-08T06:59:44.611Z,98978.69
2023-07-08T07:02:12.387Z,98980.45
2023-07-08T07:04:40.051Z,98977.08
2023-07-08T07:07:07.707Z,98972.13
2023-07-08T07:09:35.720Z,98975.67
2023-07-08T07:12:03.753Z,98972.85
2023-07-08T07:17:07.301Z,98980.40
2023-07-08T07:19:36.501Z,98981.52
2023-07-08T07:22:04.454Z,98977.42
2023-07-08T07:24:32.104Z,98977.25
2023-07-08T07:26:59.730Z,98968.73
2023-07-08T07:29:27.400Z,98970.35
2023-07-08T07:31:56.081Z,98975.72
2023-07-08T07:34:23.863Z,98974.43
2023-07-08T07:36:51.634Z,98972.06
2023-07-08T07:39:19.602Z,98965.77
2023-07-08T07:41:47.484Z,98969.44
2023-07-08T07:44:15.157Z,98975.77
2023-07-08T07:46:42.839Z,98980.30
2023-07-08T07:49:10.692Z,98983.77
2023-07-08T07:51:38.606Z,98983.73
2023-07-08T07:54:06.285Z,98983.04
2023-07-08T07:56:34.503Z,98980.36
2023-07-08T07:59:02.170Z,98981.77
2023-07-08T08:01:29.847Z,98985.45
2023-07-08T08:03:57.622Z,98986.34
2023-07-08T08:06:25.286Z,98984.40
2023-07-08T08:08:53.066Z,98982.83
2023-07-08T08:11:23.652Z,98983.60
2023-07-08T08:13:52.951Z,98978.45
2023-07-08T08:16:21.889Z,98980.55
2023-07-08T08:18:49.804Z,98979.27
2023-07-08T08:21:17.729Z,98982.58
2023-07-08T08:23:45.398Z,98985.46
2023-07-08T08:26:13.011Z,98988.89
2023-07-08T08:28:40.989Z,98989.52
2023-07-08T08:31:08.638Z,98987.14
2023-07-08T08:33:36.395Z,98985.42
2023-07-08T08:36:04.495Z,98985.33
2023-07-08T08:38:32.342Z,98981.91
2023-07-08T08:41:04.575Z,98980.94
2023-07-08T08:43:39.852Z,98977.48
2023-07-08T08:46:11.261Z,98974.37
2023-07-08T08:48:51.146Z,98970.09
2023-07-08T08:51:18.810Z,98971.27
2023-07-08T08:53:46.483Z,98967.46
2023-07-08T08:56:23.460Z,98968.48
2023-07-08T08:59:35.923Z,98962.75
2023-07-08T09:02:13.206Z,98966.38
2023-07-08T09:04:41.164Z,98960.67
2023-07-08T09:07:13.871Z,98958.80
2023-07-08T09:09:45.610Z,98958.34
2023-07-08T09:12:19.067Z,98959.17
2023-07-08T09:14:47.101Z,98959.36
2023-07-08T09:17:23.835Z,98957.79
2023-07-08T09:20:10.139Z,98960.17
2023-07-08T09:22:40.668Z,98956.88
2023-07-08T09:25:30.234Z,98956.65
2023-07-08T09:27:58.053Z,98957.73
2023-07-08T09:30:26.067Z,98956.19
2023-07-08T09:32:53.774Z,98958.08
2023-07-08T09:35:29.512Z,98955.48
2023-07-08T09:37:57.582Z,98954.29
2023-07-08T09:40:28.887Z,98949.92
2023-07-08T09:43:02.092Z,98952.89
2023-07-08T09:45:30.034Z,98941.86
2023-07-08T09:47:58.638Z,98947.02
2023-07-08T09:50:28.470Z,98947.16
2023-07-08T09:53:06.138Z,98946.67
2023-07-08T09:55:34.093Z,98947.94
2023-07-08T09:58:06.402Z,98946.41
2023-07-08T10:00:39.285Z,98947.77
2023-07-08T10:03:14.792Z,98943.08
2023-07-08T10:05:43.357Z,98938.91
2023-07-08T10:08:18.912Z,98932.40
2023-07-08T10:10:48.811Z,98933.08
2023-07-08T10:13:20.671Z,98927.09
2023-07-08T10:15:53.276Z,98924.58
2023-07-08T10:18:26.610Z,98923.89
2023-07-08T10:20:54.213Z,98917.66
2023-07-08T10:24:03.861Z,98918.25
2023-07-08T10:26:32.944Z,98913.94
2023-07-08T10:29:22.428Z,98918.23
2023-07-08T10:32:06.878Z,98922.30
2023-07-08T10:34:43.426Z,98919.02
2023-07-08T10:37:21.619Z,98911.17
2023-07-08T10:40:20.429Z,98907.51
2023-07-08T10:43:06.992Z,98902.34
2023-07-08T10:45:44.959Z,98903.77
2023-07-08T10:48:12.567Z,98900.38
2023-07-08T10:50:52.362Z,98895.94
2023-07-08T10:53:57.389Z,98894.29
2023-07-08T10:57:14.749Z,98898.95
2023-07-08T10:59:54.428Z,98895.95
2023-07-08T11:02:51.201Z,98894.58
2023-07-08T11:05:36.049Z,98890.43
2023-07-08T11:08:18.340Z,98885.84
2023-07-08T11:13:37.658Z,98877.83
2023-07-08T11:16:32.537Z,98873.70
2023-07-08T11:19:26.984Z,98876.59
2023-07-08T11:21:56.157Z,98871.29
2023-07-08T11:24:23.871Z,98868.80
2023-07-08T11:27:06.739Z,98863.73
2023-07-08T11:29:50.689Z,98869.09
2023-07-08T11:32:20.584Z,98864.76
2023-07-08T11:34:49.518Z,98863.06
2023-07-08T11:37:17.228Z,98859.69
2023-07-08T11:39:49.352Z,98861.38
2023-07-08T11:42:36.624Z,98864.04
2023-07-08T11:45:24.224Z,98861.95
2023-07-08T11:47:52.020Z,98863.90
2023-07-08T11:50:30.812Z,98859.43
2023-07-08T11:53:03.572Z,98862.40
2023-07-08T11:55:45.045Z,98861.44
2023-07-08T11:58:23.933Z,98856.71
2023-07-08T12:01:14.892Z,98855.33
2023-07-08T12:03:49.535Z,98853.44
2023-07-08T12:06:29.860Z,98854.23
2023-07-08T12:09:13.530Z,98850.63
2023-07-08T12:11:45.420Z,98848.59
2023-07-08T12:14:13.101Z,98847.27
2023-07-08T12:16:40.983Z,98846.48
2023-07-08T12:19:11.835Z,98846.75
2023-07-08T12:21:39.519Z,98842.27
2023-07-08T12:24:07.466Z,98841.54
2023-07-08T12:26:35.376Z,98834.72
2023-07-08T12:29:03.240Z,98833.58
2023-07-08T12:31:32.415Z,98829.06
2023-07-08T12:34:00.269Z,98829.05
2023-07-08T12:36:30.936Z,98831.20
2023-07-08T12:38:59.367Z,98829.90
2023-07-08T12:41:30.011Z,98823.11
2023-07-08T12:43:57.689Z,98825.91
2023-07-08T12:46:25.923Z,98822.33
2023-07-08T12:48:53.907Z,98821.67
2023-07-08T12:51:26.474Z,98817.25
2023-07-08T12:53:54.361Z,98811.06
2023-07-08T12:56:23.415Z,98812.77
2023-07-08T12:58:52.280Z,98808.47
2023-07-08T13:01:24.850Z,98807.83
2023-07-08T13:03:54.330Z,98809.23
2023-07-08T13:06:24.241Z,98804.39
2023-07-08T13:08:53.995Z,98807.14
2023-07-08T13:11:22.627Z,98802.97
2023-07-08T13:13:58.973Z,98800.71
2023-07-08T13:16:35.163Z,98797.23
2023-07-08T13:19:03.475Z,98795.05
2023-07-08T13:21:31.853Z,98793.02
2023-07-08T13:23:59.807Z,98791.79
2023-07-08T13:26:30.060Z,98791.76
2023-07-08T13:29:02.572Z,98788.55
2023-07-08T13:31:35.336Z,98786.10
2023-07-08T13:34:12.032Z,98788.34
2023-07-08T13:36:40.938Z,98790.66
2023-07-08T13:39:10.109Z,98792.32
2023-07-08T13:41:38.515Z,98782.27
2023-07-08T13:44:07.219Z,98784.55
2023-07-08T13:46:41.156Z,98783.16
2023-07-08T13:49:15.697Z,98781.30
2023-07-08T13:51:43.763Z,98782.29
2023-07-08T13:54:35.710Z,98782.59
2023-07-08T13:57:03.642Z,98779.14
2023-07-08T13:59:31.245Z,98781.80
2023-07-08T14:01:59.170Z,98779.92
2023-07-08T14:04:30.905Z,98781.12
2023-07-08T14:06:58.594Z,98782.80
2023-07-08T14:09:26.406Z,98784.73
2023-07-08T14:11:54.221Z,98777.90
2023-07-08T14:14:21.908Z,98775.09
2023-07-08T14:16:51.262Z,98777.16
2023-07-08T14:19:30.849Z,98773.04
2023-07-08T14:22:01.718Z,98768.11
2023-07-08T14:24:29.465Z,98767.80
2023-07-08T14:26:57.238Z,98766.67
2023-07-08T14:29:24.858Z,98766.50
2023-07-08T14:31:52.821Z,98761.58
2023-07-08T14:34:27.012Z,98758.30
2023-07-08T14:36:54.839Z,98756.55
2023-07-08T14:39:22.786Z,98751.34
2023-07-08T14:41:50.723Z,98754.38
2023-07-08T14:44:26.536Z,98745.67
2023-07-08T14:46:54.739Z,98750.71
2023-07-08T14:49:23.214Z,98747.79
2023-07-08T14:51:51.480Z,98743.39
2023-07-08T14:54:19.611Z,98741.47
2023-07-08T14:56:47.667Z,98738.14
2023-07-08T14:59:19.906Z,98740.77
2023-07-08T15:01:47.634Z,98740.23
2023-07-08T15:04:16.491Z,98740.57
2023-07-08T15:06:44.308Z,98733.70
2023-07-08T15:09:12.073Z,98726.23
2023-07-08T15:11:40.898Z,98723.98
2023-07-08T15:14:18.246Z,98730.71
2023-07-08T15:16:46.973Z,98724.30
2023-07-08T15:19:15.116Z,98725.90
2023-07-08T15:21:42.897Z,98722.73
2023-07-08T15:24:14.705Z,98715.02
2023-07-08T15:26:43.625Z,98712.34
2023-07-08T15:29:15.286Z,98708.63
2023-07-08T15:31:43.050Z,98713.02
2023-07-08T15:34:18.125Z,98711.70
2023-07-08T15:36:45.874Z,98713.06
2023-07-08T15:39:16.467Z,98712.05
2023-07-08T15:41:44.266Z,98706.02
2023-07-08T15:44:12.973Z,98705.81
2023-07-08T15:46:47.442Z,98706.51
2023-07-08T15:49:21.416Z,98705.21
2023-07-08T15:51:50.064Z,98705.80
2023-07-08T15:54:19.149Z,98701.73
2023-07-08T15:56:48.067Z,98695.98
2023-07-08T15:59:19.492Z,98703.42
2023-07-08T16:01:47.061Z,98703.61
2023-07-08T16:04:36.074Z,98701.35
2023-07-08T16:07:03.884Z,98703.83
2023-07-08T16:09:31.581Z,98701.83
2023-07-08T16:11:59.200Z,98702.52
2023-07-08T16:14:27.527Z,98701.91
2023-07-08T16:16:55.329Z,98696.81
2023-07-08T16:19:23.115Z,98697.95
2023-07-08T16:21:50.741Z,98698.98
2023-07-08T16:24:18.441Z,98700.02
2023-07-08T16:26:46.344Z,98695.86
2023-07-08T16:29:16.309Z,98697.96
2023-07-08T16:31:43.992Z,98700.52
2023-07-08T16:34:11.766Z,98697.90
2023-07-08T16:36:39.804Z,98698.39
2023-07-08T16:39:08.012Z,98695.38
2023-07-08T16:41:39.538Z,98700.98
2023-07-08T16:44:17.081Z,98697.91
2023-07-08T16:46:44.829Z,98693.96
2023-07-08T16:49:12.983Z,98691.98
2023-07-08T16:51:41.135Z,98692.98
2023-07-08T16:54:13.921Z,98686.79
2023-07-08T16:56:42.120Z,98690.55
2023-07-08T16:59:14.841Z,98688.44
2023-07-08T17:01:42.625Z,98681.35
2023-07-08T17:04:13.758Z,98686.30
2023-07-08T17:06:41.719Z,98679.69
2023-07-08T17:09:12.594Z,98682.15
2023-07-08T17:11:40.295Z,98678.02
2023-07-08T17:14:09.454Z,98683.27
2023-07-08T17:16:37.863Z,98679.82
2023-07-08T17:19:05.666Z,98676.80
2023-07-08T17:21:33.304Z,98677.27
2023-07-08T17:24:01.010Z,98677.38
2023-07-08T17:26:28.663Z,98680.61
2023-07-08T17:28:56.440Z,98677.77
2023-07-08T17:33:57.377Z,98681.41
2023-07-08T17:36:36.873Z,98684.16
2023-07-08T17:39:04.808Z,98679.52
2023-07-08T17:41:32.522Z,98678.83
2023-07-08T17:44:00.222Z,98680.36
2023-07-08T17:46:29.797Z,98681.07
2023-07-08T17:48:59.314Z,98682.14
2023-07-08T17:51:31.262Z,98680.95
2023-07-08T17:53:59.039Z,98678.60
2023-07-08T17:56:36.136Z,98677.20
2023-07-08T17:59:04.381Z,98679.46
2023-07-08T18:01:32.327Z,98679.62
2023-07-08T18:04:00.126Z,98680.70
2023-07-08T18:06:27.882Z,98683.21
2023-07-08T18:08:55.504Z,98678.23
2023-07-08T18:11:24.048Z,98682.95
2023-07-08T18:13:51.795Z,98680.94
2023-07-08T18:16:21.052Z,98681.02
2023-07-08T18:18:48.785Z,98680.05
2023-07-08T18:21:21.824Z,98685.77
2023-07-08T18:23:50.718Z,98683.94
2023-07-08T18:26:29.176Z,98684.23
2023-07-08T18:28:56.845Z,98687.92
2023-07-08T18:31:30.662Z,98689.11
2023-07-08T18:34:05.651Z,98689.27
2023-07-08T18:36:33.362Z,98686.21
2023-07-08T18:39:01.150Z,98687.78
2023-07-08T18:41:30.422Z,98686.05
2023-07-08T18:43:58.074Z,98690.38
2023-07-08T18:46:26.010Z,98690.19
2023-07-08T18:48:53.742Z,98695.06
2023-07-08T18:51:44.410Z,98699.00
2023-07-08T18:54:16.706Z,98704.20
2023-07-08T18:56:45.396Z,98704.85
2023-07-08T18:59:13.830Z,98704.47
2023-07-08T19:01:46.038Z,98708.15
2023-07-08T19:04:19.818Z,98710.42
2023-07-08T19:06:47.449Z,98712.91
2023-07-08T19:09:15.288Z,98711.85
2023-07-08T19:11:43.001Z,98712.97
2023-07-08T19:14:15.172Z,98715.71
2023-07-08T19:16:43.068Z,98712.44
2023-07-08T19:19:14.462Z,98716.27
2023-07-08T19:21:42.390Z,98713.00
2023-07-08T19:24:15.849Z,98716.67
2023-07-08T19:26:48.989Z,98716.94
2023-07-08T19:29:16.669Z,98718.29
2023-07-08T19:31:45.465Z,98721.96
2023-07-08T19:34:13.139Z,98719.21
2023-07-08T19:36:40.880Z,98720.15
2023-07-08T19:39:10.794Z,98722.39
2023-07-08T19:41:38.563Z,98721.02
2023-07-08T19:44:08.879Z,98720.23
2023-07-08T19:46:36.601Z,98719.52
2023-07-08T19:49:04.358Z,98719.42
2023-07-08T19:51:32.342Z,98719.88
2023-07-08T19:54:00.145Z,98723.10
2023-07-08T19:56:30.501Z,98723.96
2023-07-08T19:58:58.210Z,98724.01
2023-07-08T20:01:25.871Z,98726.17
2023-07-08T20:03:53.569Z,98723.73
2023-07-08T20:06:25.046Z,98726.95
2023-07-08T20:08:53.220Z,98727.68
2023-07-08T20:11:20.901Z,98733.70
2023-07-08T20:13:48.806Z,98733.83
2023-07-08T20:16:20.147Z,98733.38
2023-07-08T20:18:48.044Z,98733.34
2023-07-08T20:21:15.925Z,98737.34
2023-07-08T20:23:43.654Z,98740.11
2023-07-08T20:26:36.410Z,98739.52
2023-07-08T20:29:04.464Z,98740.16
2023-07-08T20:31:33.045Z,98737.38
2023-07-08T20:34:00.760Z,98740.98
2023-07-08T20:36:28.748Z,98747.94
2023-07-08T20:38:56.573Z,98748.16
2023-07-08T20:41:24.254Z,98747.88
2023-07-08T20:43:51.880Z,98747.20
2023-07-08T20:46:23.173Z,98747.80
2023-07-08T20:48:58.339Z,98750.30
2023-07-08T20:51:26.045Z,98751.58
2023-07-08T20:53:54.464Z,98751.20
2023-07-08T20:56:26.017Z,98748.17
2023-07-08T20:58:53.877Z,98750.10
2023-07-08T21:01:22.252Z,98748.66
2023-07-08T21:03:50.088Z,98754.14
2023-07-08T21:06:24.751Z,98753.26
2023-07-08T21:08:52.821Z,98755.54
2023-07-08T21:11:20.666Z,98753.23
2023-07-08T21:13:49.136Z,98755.31
2023-07-08T21:16:26.697Z,98757.05
2023-07-08T21:18:55.117Z,98757.91
2023-07-08T21:21:23.025Z,98760.50
2023-07-08T21:23:50.780Z,98762.05
2023-07-08T21:26:27.016Z,98765.21
2023-07-08T21:28:56.911Z,98768.02
2023-07-08T21:31:25.089Z,98763.16
2023-07-08T21:33:52.760Z,98764.52
2023-07-08T21:36:24.881Z,98770.11
2023-07-08T21:38:53.233Z,98767.73
2023-07-08T21:41:20.851Z,98767.65
2023-07-08T21:43:48.644Z,98768.80
2023-07-08T21:46:16.785Z,98766.41
2023-07-08T21:48:44.469Z,98766.86
2023-07-08T21:51:30.177Z,98769.43
2023-07-08T21:53:58.008Z,98766.16
2023-07-08T21:56:26.287Z,98766.76
2023-07-08T21:58:54.625Z,98767.20
2023-07-08T22:01:24.374Z,98768.31
2023-07-08T22:03:52.499Z,98768.20
2023-07-08T22:06:20.621Z,98767.03
2023-07-08T22:08:48.258Z,98766.02
2023-07-08T22:11:22.887Z,98769.09
2023-07-08T22:13:50.869Z,98769.31
2023-07-08T22:16:19.923Z,98769.73
2023-07-08T22:18:48.585Z,98772.60
2023-07-08T22:21:16.472Z,98768.73
2023-07-08T22:23:44.251Z,98768.00
2023-07-08T22:26:11.877Z,98766.21
2023-07-08T22:28:39.493Z,98770.45
2023-07-08T22:31:24.542Z,98774.02
2023-07-08T22:33:52.621Z,98771.94
2023-07-08T22:36:20.473Z,98776.06
2023-07-08T22:38:59.993Z,98779.49
2023-07-08T22:41:27.749Z,98774.96
2023-07-08T22:43:55.424Z,98777.84
2023-07-08T22:46:23.110Z,98778.05
2023-07-08T22:48:58.360Z,98774.92
2023-07-08T22:51:27.307Z,98776.56
2023-07-08T22:53:55.346Z,98778.90
2023-07-08T22:56:23.027Z,98776.11
2023-07-08T22:58:50.661Z,98774.23
2023-07-08T23:01:18.596Z,98772.17
2023-07-08T23:03:46.271Z,98773.44
2023-07-08T23:06:14.515Z,98777.35
2023-07-08T23:08:42.548Z,98772.77
2023-07-08T23:11:13.008Z,98777.71
2023-07-08T23:13:42.501Z,98777.73
2023-07-08T23:16:16.491Z,98779.13
2023-07-08T23:18:47.234Z,98778.60
2023-07-08T23:21:15.772Z,98786.40
2023-07-08T23:23:43.471Z,98783.77
2023-07-08T23:26:35.238Z,98783.27
2023-07-08T23:29:03.319Z,98782.78
2023-07-08T23:31:32.002Z,98780.17
2023-07-08T23:34:04.086Z,98777.73
2023-07-08T23:36:34.354Z,98776.19
2023-07-08T23:39:04.001Z,98776.23
2023-07-08T23:41:33.286Z,98776.60
2023-07-08T23:44:01.112Z,98779.11
2023-07-08T23:46:30.999Z,98782.13
2023-07-08T23:48:58.834Z,98783.57
2023-07-08T23:51:27.346Z,98785.55
2023-07-08T23:53:55.216Z,98787.51
2023-07-08T23:56:27.024Z,98786.29
2023-07-08T23:58:54.901Z,98785.95
